sensor_id;sensor_type;location;lat;lon;timestamp;temperature;humidity
18408;DHT22;9330;52.210;21.174;2023-06-01T00:01:44;9.70;99.90
18408;DHT22;9330;52.210;21.174;2023-06-01T00:04:12;9.60;99.90
18408;DHT22;9330;52.210;21.174;2023-06-01T00:06:39;9.60;99.90
18408;DHT22;9330;52.210;21.174;2023-06-01T00:09:07;9.70;99.90
18408;DHT22;9330;52.210;21.174;2023-06-01T00:11:34;9.50;99.90
18408;DHT22;9330;52.210;21.174;2023-06-01T00:14:01;9.50;99.90
18408;DHT22;9330;52.210;21.174;2023-06-01T00:16:29;9.50;99.90
18408;DHT22;9330;52.210;21.174;2023-06-01T00:18:56;9.40;99.90
18408;DHT22;9330;52.210;21.174;2023-06-01T00:21:26;9.40;99.90
18408;DHT22;9330;52.210;21.174;2023-06-01T00:23:53;9.30;99.90
18408;DHT22;9330;52.210;21.174;2023-06-01T00:26:21;9.40;99.90
18408;DHT22;9330;52.210;21.174;2023-06-01T00:28:48;9.40;99.90
18408;DHT22;9330;52.210;21.174;2023-06-01T00:31:15;9.30;99.90
18408;DHT22;9330;52.210;21.174;2023-06-01T00:33:42;9.20;99.90
18408;DHT22;9330;52.210;21.174;2023-06-01T00:36:08;9.20;99.90
18408;DHT22;9330;52.210;21.174;2023-06-01T00:38:35;9.30;99.90
18408;DHT22;9330;52.210;21.174;2023-06-01T00:41:02;9.10;99.90
18408;DHT22;9330;52.210;21.174;2023-06-01T00:43:30;9.10;99.90
18408;DHT22;9330;52.210;21.174;2023-06-01T00:45:57;9.00;99.90
18408;DHT22;9330;52.210;21.174;2023-06-01T00:48:25;9.00;99.90
18408;DHT22;9330;52.210;21.174;2023-06-01T00:50:52;9.00;99.90
18408;DHT22;9330;52.210;21.174;2023-06-01T00:53:20;8.80;99.90
18408;DHT22;9330;52.210;21.174;2023-06-01T00:55:47;8.90;99.90
18408;DHT22;9330;52.210;21.174;2023-06-01T00:58:14;9.10;99.90
18408;DHT22;9330;52.210;21.174;2023-06-01T01:00:43;8.80;99.90
18408;DHT22;9330;52.210;21.174;2023-06-01T01:03:09;8.80;99.90
18408;DHT22;9330;52.210;21.174;2023-06-01T01:05:40;8.80;99.90
18408;DHT22;9330;52.210;21.174;2023-06-01T01:08:12;8.80;99.90
18408;DHT22;9330;52.210;21.174;2023-06-01T01:10:43;8.80;99.90
18408;DHT22;9330;52.210;21.174;2023-06-01T01:13:16;8.70;99.90
18408;DHT22;9330;52.210;21.174;2023-06-01T01:15:50;8.90;99.90
18408;DHT22;9330;52.210;21.174;2023-06-01T01:18:23;8.60;99.90
18408;DHT22;9330;52.210;21.174;2023-06-01T01:20:56;8.60;99.90
18408;DHT22;9330;52.210;21.174;2023-06-01T01:23:41;8.60;99.90
18408;DHT22;9330;52.210;21.174;2023-06-01T01:26:29;8.60;99.90
18408;DHT22;9330;52.210;21.174;2023-06-01T01:29:06;8.60;99.90
18408;DHT22;9330;52.210;21.174;2023-06-01T01:31:34;8.50;99.90
18408;DHT22;9330;52.210;21.174;2023-06-01T01:34:03;8.50;99.90
18408;DHT22;9330;52.210;21.174;2023-06-01T01:36:30;8.50;99.90
18408;DHT22;9330;52.210;21.174;2023-06-01T01:38:57;8.40;99.90
18408;DHT22;9330;52.210;21.174;2023-06-01T01:41:24;8.40;99.90
18408;DHT22;9330;52.210;21.174;2023-06-01T01:43:51;8.50;99.90
18408;DHT22;9330;52.210;21.174;2023-06-01T01:46:24;8.50;99.90
18408;DHT22;9330;52.210;21.174;2023-06-01T01:48:58;8.40;99.90
18408;DHT22;9330;52.210;21.174;2023-06-01T01:51:32;8.50;99.90
18408;DHT22;9330;52.210;21.174;2023-06-01T01:54:04;8.40;99.90
18408;DHT22;9330;52.210;21.174;2023-06-01T01:56:34;8.40;99.90
18408;DHT22;9330;52.210;21.174;2023-06-01T01:59:01;8.30;99.90
18408;DHT22;9330;52.210;21.174;2023-06-01T02:01:30;8.30;99.90
18408;DHT22;9330;52.210;21.174;2023-06-01T02:03:59;8.30;99.90
18408;DHT22;9330;52.210;21.174;2023-06-01T02:06:26;8.30;99.90
18408;DHT22;9330;52.210;21.174;2023-06-01T02:08:53;8.30;99.90
18408;DHT22;9330;52.210;21.174;2023-06-01T02:11:20;8.20;99.90
18408;DHT22;9330;52.210;21.174;2023-06-01T02:13:47;8.20;99.90
18408;DHT22;9330;52.210;21.174;2023-06-01T02:16:14;8.20;99.90
18408;DHT22;9330;52.210;21.174;2023-06-01T02:18:43;8.20;99.90
18408;DHT22;9330;52.210;21.174;2023-06-01T02:21:11;8.20;99.90
18408;DHT22;9330;52.210;21.174;2023-06-01T02:23:38;8.10;99.90
18408;DHT22;9330;52.210;21.174;2023-06-01T02:26:06;8.10;99.90
18408;DHT22;9330;52.210;21.174;2023-06-01T02:28:33;8.10;99.90
18408;DHT22;9330;52.210;21.174;2023-06-01T02:31:00;8.20;99.90
18408;DHT22;9330;52.210;21.174;2023-06-01T02:33:27;8.10;99.90
18408;DHT22;9330;52.210;21.174;2023-06-01T02:35:55;8.10;99.90
18408;DHT22;9330;52.210;21.174;2023-06-01T02:38:22;8.20;99.90
18408;DHT22;9330;52.210;21.174;2023-06-01T02:40:49;8.30;99.90
18408;DHT22;9330;52.210;21.174;2023-06-01T02:43:16;8.10;99.90
18408;DHT22;9330;52.210;21.174;2023-06-01T02:45:42;8.10;99.90
18408;DHT22;9330;52.210;21.174;2023-06-01T02:48:09;8.00;99.90
18408;DHT22;9330;52.210;21.174;2023-06-01T02:50:36;8.20;99.90
18408;DHT22;9330;52.210;21.174;2023-06-01T02:53:04;8.10;99.90
18408;DHT22;9330;52.210;21.174;2023-06-01T02:55:32;8.10;99.90
18408;DHT22;9330;52.210;21.174;2023-06-01T02:57:58;8.20;99.90
18408;DHT22;9330;52.210;21.174;2023-06-01T03:00:25;8.20;99.90
18408;DHT22;9330;52.210;21.174;2023-06-01T03:02:53;8.20;99.90
18408;DHT22;9330;52.210;21.174;2023-06-01T03:05:19;8.30;99.90
18408;DHT22;9330;52.210;21.174;2023-06-01T03:07:47;8.20;99.90
18408;DHT22;9330;52.210;21.174;2023-06-01T03:10:15;8.30;99.90
18408;DHT22;9330;52.210;21.174;2023-06-01T03:12:42;8.20;99.90
18408;DHT22;9330;52.210;21.174;2023-06-01T03:15:09;8.30;99.90
18408;DHT22;9330;52.210;21.174;2023-06-01T03:17:36;8.30;99.90
18408;DHT22;9330;52.210;21.174;2023-06-01T03:20:04;8.40;99.90
18408;DHT22;9330;52.210;21.174;2023-06-01T03:22:40;8.40;99.90
18408;DHT22;9330;52.210;21.174;2023-06-01T03:25:07;8.40;99.90
18408;DHT22;9330;52.210;21.174;2023-06-01T03:27:35;8.50;99.90
18408;DHT22;9330;52.210;21.174;2023-06-01T03:30:03;8.50;99.90
18408;DHT22;9330;52.210;21.174;2023-06-01T03:32:35;8.60;99.90
18408;DHT22;9330;52.210;21.174;2023-06-01T03:35:03;8.70;99.90
18408;DHT22;9330;52.210;21.174;2023-06-01T03:37:30;8.80;99.90
18408;DHT22;9330;52.210;21.174;2023-06-01T03:39:57;8.80;99.90
18408;DHT22;9330;52.210;21.174;2023-06-01T03:42:23;8.80;99.90
18408;DHT22;9330;52.210;21.174;2023-06-01T03:44:52;9.00;99.90
18408;DHT22;9330;52.210;21.174;2023-06-01T03:47:19;9.20;99.90
18408;DHT22;9330;52.210;21.174;2023-06-01T03:49:46;9.10;99.90
18408;DHT22;9330;52.210;21.174;2023-06-01T03:52:12;9.20;99.90
18408;DHT22;9330;52.210;21.174;2023-06-01T03:54:41;9.40;99.90
18408;DHT22;9330;52.210;21.174;2023-06-01T03:57:08;9.40;99.90
18408;DHT22;9330;52.210;21.174;2023-06-01T03:59:35;9.50;99.90
18408;DHT22;9330;52.210;21.174;2023-06-01T04:02:04;9.60;99.90
18408;DHT22;9330;52.210;21.174;2023-06-01T04:04:33;9.70;99.90
18408;DHT22;9330;52.210;21.174;2023-06-01T04:07:01;9.90;99.90
18408;DHT22;9330;52.210;21.174;2023-06-01T04:09:28;10.00;99.90
18408;DHT22;9330;52.210;21.174;2023-06-01T04:11:55;10.10;99.90
18408;DHT22;9330;52.210;21.174;2023-06-01T04:14:22;10.20;99.90
18408;DHT22;9330;52.210;21.174;2023-06-01T04:16:49;10.40;99.90
18408;DHT22;9330;52.210;21.174;2023-06-01T04:19:17;10.60;99.90
18408;DHT22;9330;52.210;21.174;2023-06-01T04:21:44;10.70;99.90
18408;DHT22;9330;52.210;21.174;2023-06-01T04:24:11;10.90;99.90
18408;DHT22;9330;52.210;21.174;2023-06-01T04:26:38;11.00;99.90
18408;DHT22;9330;52.210;21.174;2023-06-01T04:29:05;11.20;99.90
18408;DHT22;9330;52.210;21.174;2023-06-01T04:31:34;11.30;99.90
18408;DHT22;9330;52.210;21.174;2023-06-01T04:34:01;11.50;99.90
18408;DHT22;9330;52.210;21.174;2023-06-01T04:36:29;11.60;99.90
18408;DHT22;9330;52.210;21.174;2023-06-01T04:38:56;11.70;99.90
18408;DHT22;9330;52.210;21.174;2023-06-01T04:41:23;11.90;99.90
18408;DHT22;9330;52.210;21.174;2023-06-01T04:43:51;12.20;99.90
18408;DHT22;9330;52.210;21.174;2023-06-01T04:46:19;12.30;99.90
18408;DHT22;9330;52.210;21.174;2023-06-01T04:48:46;12.50;99.90
18408;DHT22;9330;52.210;21.174;2023-06-01T04:51:14;12.60;99.90
18408;DHT22;9330;52.210;21.174;2023-06-01T04:53:47;12.80;99.90
18408;DHT22;9330;52.210;21.174;2023-06-01T04:56:16;13.00;99.90
18408;DHT22;9330;52.210;21.174;2023-06-01T04:58:43;13.30;99.90
18408;DHT22;9330;52.210;21.174;2023-06-01T05:01:10;13.30;99.90
18408;DHT22;9330;52.210;21.174;2023-06-01T05:03:41;13.50;99.90
18408;DHT22;9330;52.210;21.174;2023-06-01T05:06:09;13.70;99.90
18408;DHT22;9330;52.210;21.174;2023-06-01T05:08:36;13.90;99.90
18408;DHT22;9330;52.210;21.174;2023-06-01T05:11:04;14.00;99.90
18408;DHT22;9330;52.210;21.174;2023-06-01T05:13:31;14.20;99.90
18408;DHT22;9330;52.210;21.174;2023-06-01T05:16:02;14.40;99.90
18408;DHT22;9330;52.210;21.174;2023-06-01T05:18:29;14.60;99.90
18408;DHT22;9330;52.210;21.174;2023-06-01T05:20:56;14.80;99.90
18408;DHT22;9330;52.210;21.174;2023-06-01T05:23:23;15.00;99.90
18408;DHT22;9330;52.210;21.174;2023-06-01T05:25:51;15.20;99.90
18408;DHT22;9330;52.210;21.174;2023-06-01T05:28:19;15.50;99.90
18408;DHT22;9330;52.210;21.174;2023-06-01T05:30:46;15.60;99.90
18408;DHT22;9330;52.210;21.174;2023-06-01T05:33:13;15.90;99.90
18408;DHT22;9330;52.210;21.174;2023-06-01T05:35:40;16.20;99.90
18408;DHT22;9330;52.210;21.174;2023-06-01T05:38:07;16.40;97.50
18408;DHT22;9330;52.210;21.174;2023-06-01T05:40:34;16.60;99.20
18408;DHT22;9330;52.210;21.174;2023-06-01T05:43:01;16.80;96.30
18408;DHT22;9330;52.210;21.174;2023-06-01T05:45:30;17.00;95.50
18408;DHT22;9330;52.210;21.174;2023-06-01T05:47:56;17.20;92.60
18408;DHT22;9330;52.210;21.174;2023-06-01T05:50:23;17.40;91.40
18408;DHT22;9330;52.210;21.174;2023-06-01T05:52:51;17.50;84.50
18408;DHT22;9330;52.210;21.174;2023-06-01T05:55:18;17.70;88.20
18408;DHT22;9330;52.210;21.174;2023-06-01T05:57:45;17.90;89.80
18408;DHT22;9330;52.210;21.174;2023-06-01T06:00:14;18.00;76.10
18408;DHT22;9330;52.210;21.174;2023-06-01T06:02:43;18.10;77.00
18408;DHT22;9330;52.210;21.174;2023-06-01T06:05:10;18.20;69.20
18408;DHT22;9330;52.210;21.174;2023-06-01T06:07:38;18.30;68.40
18408;DHT22;9330;52.210;21.174;2023-06-01T06:10:06;18.50;66.60
18408;DHT22;9330;52.210;21.174;2023-06-01T06:12:33;18.60;66.60
18408;DHT22;9330;52.210;21.174;2023-06-01T06:15:00;18.80;61.90
18408;DHT22;9330;52.210;21.174;2023-06-01T06:17:27;18.90;60.00
18408;DHT22;9330;52.210;21.174;2023-06-01T06:19:55;19.10;60.20
18408;DHT22;9330;52.210;21.174;2023-06-01T06:22:22;19.20;56.30
18408;DHT22;9330;52.210;21.174;2023-06-01T06:24:48;19.40;56.10
18408;DHT22;9330;52.210;21.174;2023-06-01T06:27:15;19.50;55.90
18408;DHT22;9330;52.210;21.174;2023-06-01T06:29:42;19.60;55.10
18408;DHT22;9330;52.210;21.174;2023-06-01T06:32:09;19.60;53.30
18408;DHT22;9330;52.210;21.174;2023-06-01T06:34:36;19.80;54.50
18408;DHT22;9330;52.210;21.174;2023-06-01T06:37:05;19.80;52.10
18408;DHT22;9330;52.210;21.174;2023-06-01T06:39:33;20.00;54.20
18408;DHT22;9330;52.210;21.174;2023-06-01T06:42:00;20.20;51.70
18408;DHT22;9330;52.210;21.174;2023-06-01T06:44:28;20.20;48.50
18408;DHT22;9330;52.210;21.174;2023-06-01T06:46:54;20.30;48.90
18408;DHT22;9330;52.210;21.174;2023-06-01T06:49:21;20.50;49.40
18408;DHT22;9330;52.210;21.174;2023-06-01T06:51:48;20.70;46.90
18408;DHT22;9330;52.210;21.174;2023-06-01T06:54:16;21.00;49.50
18408;DHT22;9330;52.210;21.174;2023-06-01T06:56:43;21.00;47.30
18408;DHT22;9330;52.210;21.174;2023-06-01T06:59:11;21.20;51.10
18408;DHT22;9330;52.210;21.174;2023-06-01T07:01:39;21.30;46.90
18408;DHT22;9330;52.210;21.174;2023-06-01T07:04:07;21.30;46.20
18408;DHT22;9330;52.210;21.174;2023-06-01T07:06:34;21.30;46.40
18408;DHT22;9330;52.210;21.174;2023-06-01T07:09:00;21.60;46.60
18408;DHT22;9330;52.210;21.174;2023-06-01T07:11:29;21.60;44.80
18408;DHT22;9330;52.210;21.174;2023-06-01T07:13:56;21.70;43.90
18408;DHT22;9330;52.210;21.174;2023-06-01T07:16:23;21.70;43.90
18408;DHT22;9330;52.210;21.174;2023-06-01T07:18:51;21.90;44.90
18408;DHT22;9330;52.210;21.174;2023-06-01T07:21:18;21.90;40.90
18408;DHT22;9330;52.210;21.174;2023-06-01T07:23:46;22.00;40.80
18408;DHT22;9330;52.210;21.174;2023-06-01T07:26:12;21.80;40.20
18408;DHT22;9330;52.210;21.174;2023-06-01T07:28:41;22.00;41.80
18408;DHT22;9330;52.210;21.174;2023-06-01T07:31:08;22.20;41.20
18408;DHT22;9330;52.210;21.174;2023-06-01T07:33:35;22.20;39.60
18408;DHT22;9330;52.210;21.174;2023-06-01T07:36:03;22.30;38.70
18408;DHT22;9330;52.210;21.174;2023-06-01T07:38:30;22.30;40.30
18408;DHT22;9330;52.210;21.174;2023-06-01T07:40:58;22.40;40.60
18408;DHT22;9330;52.210;21.174;2023-06-01T07:43:25;22.50;36.70
18408;DHT22;9330;52.210;21.174;2023-06-01T07:45:53;22.70;37.90
18408;DHT22;9330;52.210;21.174;2023-06-01T07:48:21;22.80;38.30
18408;DHT22;9330;52.210;21.174;2023-06-01T07:50:47;22.90;35.20
18408;DHT22;9330;52.210;21.174;2023-06-01T07:53:16;22.50;42.80
18408;DHT22;9330;52.210;21.174;2023-06-01T07:55:43;22.30;40.20
18408;DHT22;9330;52.210;21.174;2023-06-01T07:58:10;22.10;38.70
18408;DHT22;9330;52.210;21.174;2023-06-01T08:00:37;22.20;37.30
18408;DHT22;9330;52.210;21.174;2023-06-01T08:03:05;22.30;37.80
18408;DHT22;9330;52.210;21.174;2023-06-01T08:05:34;22.40;35.70
18408;DHT22;9330;52.210;21.174;2023-06-01T08:08:01;22.50;36.90
18408;DHT22;9330;52.210;21.174;2023-06-01T08:10:28;22.90;38.10
18408;DHT22;9330;52.210;21.174;2023-06-01T08:12:55;23.10;35.30
18408;DHT22;9330;52.210;21.174;2023-06-01T08:15:23;23.20;34.40
18408;DHT22;9330;52.210;21.174;2023-06-01T08:17:51;23.20;34.00
18408;DHT22;9330;52.210;21.174;2023-06-01T08:20:19;23.40;34.20
18408;DHT22;9330;52.210;21.174;2023-06-01T08:22:48;23.60;34.20
18408;DHT22;9330;52.210;21.174;2023-06-01T08:25:14;23.80;35.30
18408;DHT22;9330;52.210;21.174;2023-06-01T08:27:41;23.80;32.90
18408;DHT22;9330;52.210;21.174;2023-06-01T08:30:09;23.80;32.20
18408;DHT22;9330;52.210;21.174;2023-06-01T08:32:36;23.80;32.60
18408;DHT22;9330;52.210;21.174;2023-06-01T08:35:05;23.60;31.90
18408;DHT22;9330;52.210;21.174;2023-06-01T08:37:33;23.70;35.00
18408;DHT22;9330;52.210;21.174;2023-06-01T08:40:00;23.80;32.30
18408;DHT22;9330;52.210;21.174;2023-06-01T08:42:32;23.80;29.60
18408;DHT22;9330;52.210;21.174;2023-06-01T08:45:04;23.90;29.50
18408;DHT22;9330;52.210;21.174;2023-06-01T08:47:31;24.10;30.00
18408;DHT22;9330;52.210;21.174;2023-06-01T08:49:59;23.90;29.60
18408;DHT22;9330;52.210;21.174;2023-06-01T08:52:28;23.70;28.70
18408;DHT22;9330;52.210;21.174;2023-06-01T08:54:59;23.80;29.20
18408;DHT22;9330;52.210;21.174;2023-06-01T08:57:28;24.00;30.00
18408;DHT22;9330;52.210;21.174;2023-06-01T08:59:55;24.10;31.70
18408;DHT22;9330;52.210;21.174;2023-06-01T09:02:22;24.20;29.90
18408;DHT22;9330;52.210;21.174;2023-06-01T09:04:49;24.20;30.00
18408;DHT22;9330;52.210;21.174;2023-06-01T09:07:16;24.00;29.00
18408;DHT22;9330;52.210;21.174;2023-06-01T09:09:44;24.00;29.50
18408;DHT22;9330;52.210;21.174;2023-06-01T09:12:23;24.10;33.70
18408;DHT22;9330;52.210;21.174;2023-06-01T09:14:56;24.20;29.60
18408;DHT22;9330;52.210;21.174;2023-06-01T09:17:33;24.20;30.30
18408;DHT22;9330;52.210;21.174;2023-06-01T09:20:00;24.40;30.20
18408;DHT22;9330;52.210;21.174;2023-06-01T09:22:38;24.40;29.10
18408;DHT22;9330;52.210;21.174;2023-06-01T09:25:05;24.40;29.20
18408;DHT22;9330;52.210;21.174;2023-06-01T09:27:43;24.30;29.20
18408;DHT22;9330;52.210;21.174;2023-06-01T09:30:11;24.30;29.40
18408;DHT22;9330;52.210;21.174;2023-06-01T09:32:38;24.50;29.70
18408;DHT22;9330;52.210;21.174;2023-06-01T09:35:07;24.50;30.40
18408;DHT22;9330;52.210;21.174;2023-06-01T09:37:34;24.60;29.60
18408;DHT22;9330;52.210;21.174;2023-06-01T09:40:01;24.60;30.90
18408;DHT22;9330;52.210;21.174;2023-06-01T09:42:33;24.60;29.40
18408;DHT22;9330;52.210;21.174;2023-06-01T09:45:19;24.60;30.00
18408;DHT22;9330;52.210;21.174;2023-06-01T09:47:46;24.80;31.50
18408;DHT22;9330;52.210;21.174;2023-06-01T09:50:31;25.00;30.10
18408;DHT22;9330;52.210;21.174;2023-06-01T09:52:58;25.20;29.60
18408;DHT22;9330;52.210;21.174;2023-06-01T09:55:25;25.20;30.10
18408;DHT22;9330;52.210;21.174;2023-06-01T09:57:52;25.30;30.20
18408;DHT22;9330;52.210;21.174;2023-06-01T10:00:24;25.40;29.50
18408;DHT22;9330;52.210;21.174;2023-06-01T10:02:52;25.40;29.30
18408;DHT22;9330;52.210;21.174;2023-06-01T10:05:19;25.20;30.40
18408;DHT22;9330;52.210;21.174;2023-06-01T10:07:48;25.30;29.50
18408;DHT22;9330;52.210;21.174;2023-06-01T10:10:14;25.50;30.30
18408;DHT22;9330;52.210;21.174;2023-06-01T10:12:44;25.50;30.60
18408;DHT22;9330;52.210;21.174;2023-06-01T10:15:11;25.60;29.80
18408;DHT22;9330;52.210;21.174;2023-06-01T10:17:40;25.50;30.50
18408;DHT22;9330;52.210;21.174;2023-06-01T10:20:09;25.70;30.30
18408;DHT22;9330;52.210;21.174;2023-06-01T10:22:39;25.70;29.30
18408;DHT22;9330;52.210;21.174;2023-06-01T10:25:10;25.70;28.90
18408;DHT22;9330;52.210;21.174;2023-06-01T10:27:41;25.70;29.50
18408;DHT22;9330;52.210;21.174;2023-06-01T10:30:09;25.80;30.10
18408;DHT22;9330;52.210;21.174;2023-06-01T10:32:45;25.80;30.30
18408;DHT22;9330;52.210;21.174;2023-06-01T10:38:26;25.50;29.70
18408;DHT22;9330;52.210;21.174;2023-06-01T10:43:42;25.70;30.00
18408;DHT22;9330;52.210;21.174;2023-06-01T10:46:34;25.50;29.30
18408;DHT22;9330;52.210;21.174;2023-06-01T10:49:03;25.60;29.80
18408;DHT22;9330;52.210;21.174;2023-06-01T10:51:31;25.80;31.30
18408;DHT22;9330;52.210;21.174;2023-06-01T10:54:29;25.90;30.80
18408;DHT22;9330;52.210;21.174;2023-06-01T10:57:21;26.00;30.40
18408;DHT22;9330;52.210;21.174;2023-06-01T11:00:11;26.10;29.60
18408;DHT22;9330;52.210;21.174;2023-06-01T11:02:51;26.10;30.30
18408;DHT22;9330;52.210;21.174;2023-06-01T11:05:38;26.20;30.00
18408;DHT22;9330;52.210;21.174;2023-06-01T11:08:05;26.30;29.50
18408;DHT22;9330;52.210;21.174;2023-06-01T11:10:56;26.40;28.90
18408;DHT22;9330;52.210;21.174;2023-06-01T11:13:24;26.50;31.20
18408;DHT22;9330;52.210;21.174;2023-06-01T11:16:27;26.50;28.60
18408;DHT22;9330;52.210;21.174;2023-06-01T11:18:55;26.60;28.80
18408;DHT22;9330;52.210;21.174;2023-06-01T11:21:26;26.90;28.70
18408;DHT22;9330;52.210;21.174;2023-06-01T11:23:56;27.10;28.40
18408;DHT22;9330;52.210;21.174;2023-06-01T11:26:24;27.20;28.40
18408;DHT22;9330;52.210;21.174;2023-06-01T11:29:03;27.30;27.70
18408;DHT22;9330;52.210;21.174;2023-06-01T11:31:35;27.50;26.80
18408;DHT22;9330;52.210;21.174;2023-06-01T11:34:03;27.60;27.00
18408;DHT22;9330;52.210;21.174;2023-06-01T11:36:35;27.90;27.30
18408;DHT22;9330;52.210;21.174;2023-06-01T11:39:02;28.00;27.30
18408;DHT22;9330;52.210;21.174;2023-06-01T11:41:31;28.10;27.40
18408;DHT22;9330;52.210;21.174;2023-06-01T11:43:58;28.20;27.50
18408;DHT22;9330;52.210;21.174;2023-06-01T11:46:25;28.40;26.40
18408;DHT22;9330;52.210;21.174;2023-06-01T11:49:01;28.50;27.10
18408;DHT22;9330;52.210;21.174;2023-06-01T11:51:32;28.50;25.30
18408;DHT22;9330;52.210;21.174;2023-06-01T11:54:03;28.30;25.70
18408;DHT22;9330;52.210;21.174;2023-06-01T11:56:31;28.40;26.60
18408;DHT22;9330;52.210;21.174;2023-06-01T11:58:59;28.30;25.90
18408;DHT22;9330;52.210;21.174;2023-06-01T12:01:27;28.20;26.10
18408;DHT22;9330;52.210;21.174;2023-06-01T12:03:54;28.10;26.50
18408;DHT22;9330;52.210;21.174;2023-06-01T12:06:23;28.10;27.40
18408;DHT22;9330;52.210;21.174;2023-06-01T12:08:53;28.10;27.20
18408;DHT22;9330;52.210;21.174;2023-06-01T12:11:25;28.30;26.60
18408;DHT22;9330;52.210;21.174;2023-06-01T12:13:53;28.30;26.00
18408;DHT22;9330;52.210;21.174;2023-06-01T12:16:21;28.50;27.30
18408;DHT22;9330;52.210;21.174;2023-06-01T12:18:48;28.60;27.00
18408;DHT22;9330;52.210;21.174;2023-06-01T12:21:15;28.70;26.50
18408;DHT22;9330;52.210;21.174;2023-06-01T12:23:48;29.00;27.60
18408;DHT22;9330;52.210;21.174;2023-06-01T12:26:18;29.10;26.00
18408;DHT22;9330;52.210;21.174;2023-06-01T12:28:50;28.70;26.40
18408;DHT22;9330;52.210;21.174;2023-06-01T12:31:20;28.70;25.70
18408;DHT22;9330;52.210;21.174;2023-06-01T12:33:48;28.60;25.60
18408;DHT22;9330;52.210;21.174;2023-06-01T12:36:29;28.60;26.00
18408;DHT22;9330;52.210;21.174;2023-06-01T12:38:57;28.70;26.10
18408;DHT22;9330;52.210;21.174;2023-06-01T12:41:27;28.70;24.90
18408;DHT22;9330;52.210;21.174;2023-06-01T12:43:55;28.70;25.20
18408;DHT22;9330;52.210;21.174;2023-06-01T12:46:24;28.90;25.60
18408;DHT22;9330;52.210;21.174;2023-06-01T12:48:51;29.00;25.00
18408;DHT22;9330;52.210;21.174;2023-06-01T12:51:19;28.70;25.10
18408;DHT22;9330;52.210;21.174;2023-06-01T12:53:47;29.10;26.30
18408;DHT22;9330;52.210;21.174;2023-06-01T12:56:14;29.00;25.40
18408;DHT22;9330;52.210;21.174;2023-06-01T12:58:42;29.10;25.20
18408;DHT22;9330;52.210;21.174;2023-06-01T13:01:09;28.90;26.20
18408;DHT22;9330;52.210;21.174;2023-06-01T13:03:36;28.80;24.90
18408;DHT22;9330;52.210;21.174;2023-06-01T13:06:04;28.50;24.70
18408;DHT22;9330;52.210;21.174;2023-06-01T13:08:31;28.30;24.60
18408;DHT22;9330;52.210;21.174;2023-06-01T13:10:58;27.80;24.50
18408;DHT22;9330;52.210;21.174;2023-06-01T13:13:25;27.60;24.90
18408;DHT22;9330;52.210;21.174;2023-06-01T13:15:54;27.40;25.10
18408;DHT22;9330;52.210;21.174;2023-06-01T13:18:21;27.30;25.90
18408;DHT22;9330;52.210;21.174;2023-06-01T13:20:48;27.30;27.00
18408;DHT22;9330;52.210;21.174;2023-06-01T13:23:16;27.00;25.20
18408;DHT22;9330;52.210;21.174;2023-06-01T13:25:44;27.00;26.40
18408;DHT22;9330;52.210;21.174;2023-06-01T13:28:11;26.90;25.80
18408;DHT22;9330;52.210;21.174;2023-06-01T13:30:38;26.70;25.60
18408;DHT22;9330;52.210;21.174;2023-06-01T13:33:07;26.70;25.40
18408;DHT22;9330;52.210;21.174;2023-06-01T13:35:34;26.70;25.80
18408;DHT22;9330;52.210;21.174;2023-06-01T13:38:01;26.80;25.80
18408;DHT22;9330;52.210;21.174;2023-06-01T13:40:28;26.80;25.50
18408;DHT22;9330;52.210;21.174;2023-06-01T13:42:55;26.80;25.80
18408;DHT22;9330;52.210;21.174;2023-06-01T13:45:22;26.80;25.70
18408;DHT22;9330;52.210;21.174;2023-06-01T13:47:49;26.90;25.60
18408;DHT22;9330;52.210;21.174;2023-06-01T13:50:18;26.80;25.40
18408;DHT22;9330;52.210;21.174;2023-06-01T13:52:45;26.80;25.90
18408;DHT22;9330;52.210;21.174;2023-06-01T13:55:12;26.80;25.50
18408;DHT22;9330;52.210;21.174;2023-06-01T13:57:40;26.80;25.60
18408;DHT22;9330;52.210;21.174;2023-06-01T14:00:08;26.70;25.10
18408;DHT22;9330;52.210;21.174;2023-06-01T14:02:36;26.70;26.00
18408;DHT22;9330;52.210;21.174;2023-06-01T14:05:03;26.70;24.80
18408;DHT22;9330;52.210;21.174;2023-06-01T14:07:32;26.70;24.70
18408;DHT22;9330;52.210;21.174;2023-06-01T14:09:58;26.50;24.70
18408;DHT22;9330;52.210;21.174;2023-06-01T14:12:25;26.60;25.00
18408;DHT22;9330;52.210;21.174;2023-06-01T14:14:52;26.60;25.10
18408;DHT22;9330;52.210;21.174;2023-06-01T14:17:19;26.60;25.10
18408;DHT22;9330;52.210;21.174;2023-06-01T14:19:46;26.70;25.20
18408;DHT22;9330;52.210;21.174;2023-06-01T14:22:12;26.70;25.80
18408;DHT22;9330;52.210;21.174;2023-06-01T14:24:41;26.70;25.70
18408;DHT22;9330;52.210;21.174;2023-06-01T14:27:07;26.60;25.60
18408;DHT22;9330;52.210;21.174;2023-06-01T14:29:34;26.60;26.10
18408;DHT22;9330;52.210;21.174;2023-06-01T14:32:01;26.60;25.30
18408;DHT22;9330;52.210;21.174;2023-06-01T14:34:28;26.50;26.10
18408;DHT22;9330;52.210;21.174;2023-06-01T14:36:55;26.50;26.20
18408;DHT22;9330;52.210;21.174;2023-06-01T14:39:22;26.50;26.00
18408;DHT22;9330;52.210;21.174;2023-06-01T14:41:50;26.60;25.70
18408;DHT22;9330;52.210;21.174;2023-06-01T14:44:17;26.60;25.60
18408;DHT22;9330;52.210;21.174;2023-06-01T14:46:44;26.50;25.70
18408;DHT22;9330;52.210;21.174;2023-06-01T14:49:11;26.60;25.80
18408;DHT22;9330;52.210;21.174;2023-06-01T14:51:38;26.50;26.10
18408;DHT22;9330;52.210;21.174;2023-06-01T14:54:05;26.60;25.70
18408;DHT22;9330;52.210;21.174;2023-06-01T14:56:31;26.50;26.00
18408;DHT22;9330;52.210;21.174;2023-06-01T14:59:00;26.60;26.60
18408;DHT22;9330;52.210;21.174;2023-06-01T15:01:26;26.60;26.20
18408;DHT22;9330;52.210;21.174;2023-06-01T15:03:53;26.60;25.80
18408;DHT22;9330;52.210;21.174;2023-06-01T15:06:20;26.60;26.10
18408;DHT22;9330;52.210;21.174;2023-06-01T15:08:47;26.60;26.20
18408;DHT22;9330;52.210;21.174;2023-06-01T15:11:14;26.50;26.00
18408;DHT22;9330;52.210;21.174;2023-06-01T15:13:41;26.70;26.90
18408;DHT22;9330;52.210;21.174;2023-06-01T15:16:09;27.00;26.80
18408;DHT22;9330;52.210;21.174;2023-06-01T15:18:36;27.20;26.00
18408;DHT22;9330;52.210;21.174;2023-06-01T15:21:03;27.30;25.50
18408;DHT22;9330;52.210;21.174;2023-06-01T15:23:30;27.50;25.20
18408;DHT22;9330;52.210;21.174;2023-06-01T15:25:57;27.70;25.30
18408;DHT22;9330;52.210;21.174;2023-06-01T15:28:24;27.80;26.00
18408;DHT22;9330;52.210;21.174;2023-06-01T15:30:51;27.80;25.90
18408;DHT22;9330;52.210;21.174;2023-06-01T15:33:19;27.50;25.90
18408;DHT22;9330;52.210;21.174;2023-06-01T15:35:46;27.20;26.00
18408;DHT22;9330;52.210;21.174;2023-06-01T15:38:13;27.00;25.90
18408;DHT22;9330;52.210;21.174;2023-06-01T15:40:40;26.80;26.60
18408;DHT22;9330;52.210;21.174;2023-06-01T15:43:07;26.60;27.20
18408;DHT22;9330;52.210;21.174;2023-06-01T15:45:34;26.60;27.00
18408;DHT22;9330;52.210;21.174;2023-06-01T15:48:01;26.40;26.60
18408;DHT22;9330;52.210;21.174;2023-06-01T15:50:29;26.30;27.00